Time;durP1;ratioP1;P1;durP2;ratioP2;P2;SDS_P1;SDS_P2;PMS_P1;PMS_P2;Temp;Humidity;BMP_temperature;BMP_pressure;BME280_temperature;BME280_humidity;BME280_pressure;Samples;Min_cycle;Max_cycle;Signal;HPM_P1;HPM_P2
2022/06/25 00:01:38;;;;;;;2.07;1.63;;;23.90;97.00;;;;;;5008519;28;20177;-93
2022/06/25 00:07:27;;;;;;;3.17;1.77;;;23.90;97.00;;;;;;5027966;28;20188;-93
2022/06/25 00:09:52;;;;;;;3.53;1.70;;;23.80;97.10;;;;;;5014831;28;20221;-93
2022/06/25 00:15:47;;;;;;;3.60;1.67;;;23.80;97.10;;;;;;5032378;28;20253;-93
2022/06/25 00:28:20;;;;;;;3.43;1.70;;;23.90;96.40;;;;;;5033433;28;20173;-93
2022/06/25 00:34:58;;;;;;;3.30;1.70;;;23.90;96.20;;;;;;5033430;28;20172;-93
2022/06/25 00:40:46;;;;;;;3.00;1.47;;;23.90;96.10;;;;;;5042669;28;20292;-95
2022/06/25 00:44:17;;;;;;;3.03;1.60;;;23.90;96.00;;;;;;5019252;28;20169;-94
2022/06/25 00:50:14;;;;;;;2.77;1.60;;;23.80;96.00;;;;;;4955918;29;20202;-93
2022/06/25 00:52:44;;;;;;;3.07;1.50;;;23.80;96.20;;;;;;4940923;29;20243;-94
2022/06/25 01:01:38;;;;;;;4.10;1.60;;;23.30;98.30;;;;;;5040928;28;20184;-93
2022/06/25 01:04:16;;;;;;;2.27;1.60;;;23.10;98.60;;;;;;5025307;28;20173;-94
2022/06/25 01:07:29;;;;;;;1.67;1.40;;;23.10;98.50;;;;;;5020528;28;20186;-94
2022/06/25 01:13:19;;;;;;;6.20;2.00;;;23.40;97.90;;;;;;4968517;28;20264;-94
2022/06/25 01:15:45;;;;;;;1.63;1.53;;;23.30;97.90;;;;;;4937304;29;20355;-93
2022/06/25 01:18:11;;;;;;;3.80;1.87;;;23.30;98.00;;;;;;4995836;28;20184;-93
2022/06/25 01:20:37;;;;;;;2.93;1.83;;;23.20;98.70;;;;;;5030420;28;20176;-94
2022/06/25 01:26:35;;;;;;;2.70;1.50;;;23.00;99.10;;;;;;5048247;28;20180;-94
2022/06/25 01:45:36;;;;;;;4.00;2.10;;;22.70;99.90;;;;;;5039924;28;20242;-94
2022/06/25 01:48:42;;;;;;;3.20;1.93;;;22.70;99.90;;;;;;5021392;28;20172;-94
2022/06/25 01:51:15;;;;;;;2.70;2.13;;;22.70;99.90;;;;;;5015972;28;20208;-92
2022/06/25 01:53:50;;;;;;;3.10;1.80;;;22.70;99.90;;;;;;5025046;28;20174;-93
2022/06/25 01:56:48;;;;;;;3.23;1.87;;;22.60;99.90;;;;;;5020955;28;20172;-93
2022/06/25 02:03:04;;;;;;;4.33;1.77;;;22.70;99.90;;;;;;5036050;28;20196;-93
2022/06/25 02:12:08;;;;;;;2.50;2.07;;;23.00;98.70;;;;;;5040343;28;20275;-94
2022/06/25 02:15:15;;;;;;;1.93;1.67;;;23.10;98.30;;;;;;5024426;28;20196;-93
2022/06/25 02:21:09;;;;;;;3.83;2.30;;;22.70;99.60;;;;;;5042639;28;20244;-93
2022/06/25 02:23:44;;;;;;;3.23;1.90;;;22.80;99.30;;;;;;5020100;28;20252;-93
2022/06/25 02:30:02;;;;;;;6.37;2.10;;;22.80;99.90;;;;;;5006952;28;20202;-93
2022/06/25 02:33:19;;;;;;;3.93;1.70;;;22.50;99.90;;;;;;5025091;28;20232;-93
2022/06/25 02:38:50;;;;;;;3.80;2.00;;;22.60;99.90;;;;;;4962483;29;20202;-93
2022/06/25 02:44:43;;;;;;;2.90;1.97;;;22.30;99.90;;;;;;5025233;28;20324;-94
2022/06/25 02:50:54;;;;;;;2.73;2.00;;;21.90;99.90;;;;;;4940137;29;20192;-94
2022/06/25 02:53:49;;;;;;;3.07;2.20;;;21.80;99.90;;;;;;5021282;28;20192;-93
2022/06/25 02:59:53;;;;;;;5.37;2.40;;;21.60;99.90;;;;;;5052642;28;20187;-94
2022/06/25 03:03:38;;;;;;;4.20;2.20;;;21.80;99.90;;;;;;5030050;28;20184;-94
2022/06/25 03:05:39;;;;;;;2.80;2.07;;;21.80;99.90;;;;;;5040059;28;20180;-95
2022/06/25 03:08:38;;;;;;;3.37;2.13;;;21.90;99.90;;;;;;5034708;28;20169;-93
2022/06/25 03:11:04;;;;;;;1.93;1.70;;;21.90;99.90;;;;;;5036067;28;20181;-95
2022/06/25 03:13:34;;;;;;;3.30;1.90;;;22.00;99.90;;;;;;5039706;28;20180;-94
2022/06/25 03:16:00;;;;;;;3.83;1.90;;;22.20;99.90;;;;;;5040475;28;20199;-94
2022/06/25 03:18:26;;;;;;;2.53;2.00;;;22.30;99.90;;;;;;5040433;28;20194;-94
2022/06/25 03:21:13;;;;;;;3.70;1.97;;;22.40;99.90;;;;;;5037412;28;20276;-93
2022/06/25 03:33:52;;;;;;;3.73;1.90;;;22.00;99.90;;;;;;5054735;28;20172;-93
2022/06/25 03:39:40;;;;;;;2.70;1.90;;;22.00;99.90;;;;;;5056155;28;20168;-94
2022/06/25 03:42:35;;;;;;;2.50;1.63;;;22.10;99.90;;;;;;5038860;28;20168;-93
2022/06/25 03:45:39;;;;;;;2.47;1.73;;;22.20;99.90;;;;;;5037394;28;20167;-94
2022/06/25 03:54:53;;;;;;;4.33;1.87;;;22.00;99.90;;;;;;5056831;28;20156;-94
2022/06/25 03:57:28;;;;;;;1.83;1.70;;;22.00;99.90;;;;;;5039580;28;20191;-94
2022/06/25 04:00:07;;;;;;;5.43;2.10;;;22.20;99.90;;;;;;5039181;28;20195;-94
2022/06/25 04:02:33;;;;;;;2.33;1.80;;;22.40;99.90;;;;;;5031597;28;20181;-94
2022/06/25 04:05:49;;;;;;;2.43;1.60;;;22.60;99.90;;;;;;5032965;28;20200;-95
2022/06/25 04:22:03;;;;;;;1.77;1.50;;;22.90;98.80;;;;;;5059108;28;20208;-95
2022/06/25 04:37:51;;;;;;;1.97;1.50;;;23.20;98.10;;;;;;4988457;28;20195;-94
2022/06/25 04:40:17;;;;;;;3.70;1.83;;;23.20;97.90;;;;;;5033296;28;20192;-94
2022/06/25 04:43:32;;;;;;;3.93;2.00;;;23.30;97.80;;;;;;5032169;28;20206;-94
2022/06/25 04:45:57;;;;;;;2.43;1.60;;;23.30;97.70;;;;;;5035011;28;20187;-94
2022/06/25 04:48:23;;;;;;;2.97;1.93;;;23.40;97.60;;;;;;5030309;28;20179;-93
2022/06/25 04:50:48;;;;;;;2.30;1.50;;;23.40;97.60;;;;;;5029955;28;20193;-94
2022/06/25 04:53:15;;;;;;;2.17;1.40;;;23.40;97.70;;;;;;5017490;28;20173;-94
2022/06/25 04:55:43;;;;;;;5.13;2.00;;;23.40;97.60;;;;;;5007821;28;20174;-94
2022/06/25 04:58:16;;;;;;;3.67;1.70;;;23.40;98.40;;;;;;5017939;28;20180;-94
2022/06/25 05:00:43;;;;;;;2.50;1.57;;;23.30;99.20;;;;;;5025401;28;20194;-94
2022/06/25 05:13:20;;;;;;;4.07;1.83;;;23.30;99.70;;;;;;5061239;28;20160;-95
2022/06/25 05:15:55;;;;;;;2.97;1.67;;;23.20;99.90;;;;;;5043465;28;20171;-94
2022/06/25 05:18:21;;;;;;;2.97;2.20;;;23.10;99.60;;;;;;5043268;28;20161;-94
2022/06/25 05:24:11;;;;;;;2.27;1.80;;;23.10;99.90;;;;;;5061100;28;20156;-95
2022/06/25 05:26:38;;;;;;;3.27;1.60;;;23.30;99.30;;;;;;5044013;28;20196;-94
2022/06/25 05:29:03;;;;;;;1.77;1.50;;;23.50;99.20;;;;;;5043909;28;20198;-93
2022/06/25 05:31:29;;;;;;;2.57;1.87;;;23.70;99.00;;;;;;5043913;28;20203;-93
2022/06/25 05:34:02;;;;;;;3.00;1.67;;;23.80;98.70;;;;;;5043888;28;20173;-95
2022/06/25 05:37:08;;;;;;;3.03;1.70;;;23.90;98.70;;;;;;5043683;28;20160;-96
2022/06/25 05:39:53;;;;;;;1.87;1.50;;;23.90;98.60;;;;;;5043786;28;20236;-94
2022/06/25 05:42:20;;;;;;;2.80;1.50;;;24.00;97.40;;;;;;5043607;28;20211;-96
2022/06/25 05:51:31;;;;;;;2.33;1.73;;;24.50;97.40;;;;;;5060626;28;20214;-94
2022/06/25 05:54:16;;;;;;;3.40;1.70;;;24.60;96.90;;;;;;5043406;28;20169;-94
2022/06/25 06:00:51;;;;;;;1.83;1.50;;;24.90;96.10;;;;;;5060556;28;20188;-92
2022/06/25 06:03:18;;;;;;;1.70;1.57;;;25.00;94.80;;;;;;5043356;28;20180;-94
2022/06/25 06:09:07;;;;;;;3.63;1.77;;;25.20;94.50;;;;;;5060214;28;20156;-94
2022/06/25 06:12:11;;;;;;;2.50;1.73;;;25.40;94.60;;;;;;5042979;28;20193;-95
2022/06/25 06:15:06;;;;;;;5.33;1.77;;;25.60;93.20;;;;;;5043107;28;20228;-93
2022/06/25 06:17:32;;;;;;;3.97;1.70;;;26.00;91.60;;;;;;5042849;28;20157;-94
2022/06/25 06:20:03;;;;;;;4.47;1.80;;;26.40;89.30;;;;;;5043001;28;20161;-94
2022/06/25 06:22:29;;;;;;;2.47;1.60;;;26.80;86.60;;;;;;5039087;28;20181;-94
2022/06/25 06:24:54;;;;;;;2.03;1.47;;;27.10;81.60;;;;;;5043088;28;20159;-94
2022/06/25 06:34:35;;;;;;;1.67;1.40;;;27.80;75.50;;;;;;5059740;28;20153;-94
2022/06/25 06:51:27;;;;;;;3.67;1.50;;;28.50;68.50;;;;;;5059045;28;20207;-95
2022/06/25 06:54:17;;;;;;;2.77;1.40;;;28.60;67.50;;;;;;5039989;28;20204;-95
2022/06/25 06:56:43;;;;;;;2.25;1.45;;;28.70;66.70;;;;;;5041315;28;20221;-95
2022/06/25 07:06:16;;;;;;;4.63;2.00;;;28.90;65.10;;;;;;5058761;28;20164;-94
2022/06/25 07:08:51;;;;;;;3.30;1.70;;;29.00;64.80;;;;;;5041522;28;20204;-94
2022/06/25 07:11:31;;;;;;;2.35;1.50;;;29.10;64.00;;;;;;5039668;28;20196;-94
2022/06/25 07:27:20;;;;;;;7.07;1.90;;;29.60;61.00;;;;;;5034585;28;20219;-94
2022/06/25 07:29:46;;;;;;;3.33;1.50;;;29.60;60.90;;;;;;5032523;28;20214;-94
2022/06/25 07:32:32;;;;;;;4.43;1.60;;;29.70;60.40;;;;;;5027065;28;20276;-96
2022/06/25 07:38:20;;;;;;;4.15;1.80;;;29.70;59.60;;;;;;5045006;28;20200;-95
2022/06/25 07:41:20;;;;;;;2.78;1.60;;;29.80;59.00;;;;;;5028423;28;20172;-96
2022/06/25 08:03:35;;;;;;;3.53;1.80;;;30.10;56.60;;;;;;4969447;29;20191;-94
2022/06/25 08:06:13;;;;;;;4.75;1.80;;;30.20;56.20;;;;;;4969783;28;20212;-94
2022/06/25 08:08:45;;;;;;;3.10;1.50;;;30.10;55.90;;;;;;5028911;28;20190;-94
2022/06/25 08:11:13;;;;;;;3.17;1.60;;;30.10;56.40;;;;;;5024177;28;20204;-93
2022/06/25 08:13:39;;;;;;;2.35;1.60;;;30.10;56.60;;;;;;5023104;28;20185;-93
2022/06/25 08:16:09;;;;;;;4.13;1.63;;;30.10;56.70;;;;;;5026117;28;20185;-93
2022/06/25 08:18:36;;;;;;;3.17;1.77;;;30.10;56.70;;;;;;5023398;28;20188;-94
2022/06/25 08:27:59;;;;;;;3.90;1.80;;;30.20;55.90;;;;;;5040815;28;20183;-93
2022/06/25 08:30:34;;;;;;;4.45;1.90;;;30.20;56.40;;;;;;5023438;28;20200;-94
2022/06/25 08:33:01;;;;;;;8.68;1.63;;;30.20;56.50;;;;;;5025583;28;20204;-94
2022/06/25 08:42:12;;;;;;;6.00;2.03;;;30.40;55.50;;;;;;5037246;28;20193;-93
2022/06/25 08:44:56;;;;;;;5.45;1.83;;;30.30;55.80;;;;;;5019072;28;20173;-93
2022/06/25 08:54:17;;;;;;;4.18;2.10;;;30.30;55.80;;;;;;5043480;28;20220;-94
2022/06/25 08:56:58;;;;;;;2.53;1.63;;;30.30;55.90;;;;;;5022861;28;20169;-93
2022/06/25 08:59:30;;;;;;;6.18;1.70;;;30.30;55.90;;;;;;5026641;28;20172;-93
2022/06/25 09:01:57;;;;;;;3.50;1.88;;;30.40;55.90;;;;;;5024858;28;20181;-93
2022/06/25 09:15:21;;;;;;;4.93;1.80;;;30.50;55.20;;;;;;4957767;29;20182;-93
2022/06/25 09:17:48;;;;;;;3.50;1.70;;;30.60;53.50;;;;;;4945330;29;20199;-93
2022/06/25 09:20:14;;;;;;;5.80;2.00;;;30.40;53.30;;;;;;5024298;28;20665;-93
2022/06/25 09:23:14;;;;;;;3.42;1.92;;;30.50;53.30;;;;;;5018178;28;20248;-93
2022/06/25 09:26:06;;;;;;;4.00;1.77;;;30.40;53.20;;;;;;5021293;28;20192;-92
2022/06/25 09:28:40;;;;;;;4.20;1.52;;;30.30;53.20;;;;;;5021631;28;20177;-93
2022/06/25 09:31:37;;;;;;;4.68;1.75;;;30.20;54.00;;;;;;5020409;28;20609;-94
2022/06/25 09:40:50;;;;;;;2.78;1.52;;;30.20;54.10;;;;;;5046524;28;20172;-94
2022/06/25 09:43:21;;;;;;;6.22;1.67;;;30.10;54.60;;;;;;5028001;28;20156;-92
2022/06/25 09:45:50;;;;;;;2.72;1.60;;;30.00;54.90;;;;;;5041964;28;20180;-93
2022/06/25 09:55:11;;;;;;;3.58;1.48;;;29.80;55.30;;;;;;5059046;28;20239;-92
2022/06/25 09:58:29;;;;;;;3.40;1.40;;;29.80;55.70;;;;;;5043204;28;20191;-94
2022/06/25 10:00:55;;;;;;;3.97;1.30;;;29.70;55.90;;;;;;5042308;28;20189;-95
2022/06/25 10:03:22;;;;;;;3.45;1.50;;;29.70;56.10;;;;;;5041414;28;20180;-94
2022/06/25 10:06:25;;;;;;;4.32;1.50;;;29.80;56.20;;;;;;5039837;28;20187;-95
2022/06/25 10:09:07;;;;;;;3.80;1.60;;;29.80;55.20;;;;;;5038819;28;20169;-93
2022/06/25 10:15:25;;;;;;;3.65;1.20;;;29.70;56.10;;;;;;4929603;29;20192;-93
2022/06/25 10:17:53;;;;;;;3.00;1.67;;;29.70;53.80;;;;;;4901691;29;20257;-93
2022/06/25 10:23:45;;;;;;;3.58;1.38;;;29.60;54.60;;;;;;4969758;28;20183;-94
2022/06/25 10:26:57;;;;;;;2.45;1.67;;;29.60;55.40;;;;;;5018085;28;20173;-92
2022/06/25 10:29:31;;;;;;;2.97;1.70;;;29.60;55.70;;;;;;5043078;28;20161;-93
2022/06/25 10:35:30;;;;;;;5.38;1.60;;;29.50;52.80;;;;;;5033371;28;20176;-93
2022/06/25 10:37:59;;;;;;;3.33;1.58;;;29.40;53.40;;;;;;5020162;28;20176;-92
2022/06/25 10:40:25;;;;;;;2.20;1.40;;;29.40;52.90;;;;;;5016699;28;20435;-92
2022/06/25 10:43:38;;;;;;;3.90;1.45;;;29.30;53.40;;;;;;5010029;28;20179;-92
2022/06/25 10:46:23;;;;;;;2.08;1.50;;;29.20;52.70;;;;;;5014613;28;20192;-93
2022/06/25 10:52:24;;;;;;;3.15;1.52;;;29.20;53.80;;;;;;5056572;28;20295;-92
2022/06/25 10:54:50;;;;;;;2.67;1.40;;;29.20;54.40;;;;;;5041342;28;20195;-92
2022/06/25 10:57:39;;;;;;;2.80;1.40;;;29.20;54.70;;;;;;5040864;28;20256;-92
2022/06/25 11:00:52;;;;;;;2.75;1.50;;;29.20;53.70;;;;;;5036886;28;20180;-92
2022/06/25 11:03:38;;;;;;;6.50;1.75;;;29.10;53.00;;;;;;5040103;28;20188;-92
2022/06/25 11:06:24;;;;;;;3.83;1.63;;;29.00;53.40;;;;;;5040626;28;20208;-92
2022/06/25 11:09:07;;;;;;;3.63;1.63;;;29.00;53.70;;;;;;5038061;28;20157;-93
2022/06/25 11:31:23;;;;;;;3.42;1.55;;;28.90;55.00;;;;;;5033307;28;20179;-92
2022/06/25 11:37:32;;;;;;;1.83;1.40;;;29.00;55.20;;;;;;5030318;28;20270;-92
2022/06/25 11:39:57;;;;;;;2.60;1.10;;;29.00;55.30;;;;;;5014398;28;20181;-92
2022/06/25 11:46:26;;;;;;;2.53;1.60;;;29.00;55.30;;;;;;5029614;28;20171;-92
2022/06/25 11:48:52;;;;;;;2.60;1.23;;;29.00;55.80;;;;;;5021581;28;20180;-94
2022/06/25 11:55:09;;;;;;;2.97;1.45;;;29.10;55.70;;;;;;5035285;28;20168;-95
2022/06/25 11:58:17;;;;;;;2.27;1.50;;;29.10;55.80;;;;;;5023190;28;20273;-94
2022/06/25 12:01:27;;;;;;;4.93;1.80;;;29.00;55.00;;;;;;5031179;28;20180;-95
2022/06/25 12:03:52;;;;;;;3.17;1.70;;;29.00;55.20;;;;;;5030710;28;20193;-94
2022/06/25 12:09:43;;;;;;;3.43;1.47;;;28.90;53.80;;;;;;5043888;28;20187;-93
2022/06/25 12:12:10;;;;;;;1.93;1.50;;;28.80;54.50;;;;;;5033561;28;20251;-93
2022/06/25 12:18:05;;;;;;;1.83;1.40;;;28.70;54.90;;;;;;5041034;28;20275;-93
2022/06/25 12:20:31;;;;;;;2.90;1.50;;;28.70;55.80;;;;;;5023508;28;20177;-93
2022/06/25 12:23:43;;;;;;;3.20;1.33;;;28.70;56.30;;;;;;5023694;28;20177;-93
2022/06/25 12:26:09;;;;;;;6.43;1.40;;;28.80;55.80;;;;;;5028555;28;20181;-93
2022/06/25 12:28:39;;;;;;;3.20;1.50;;;28.80;55.10;;;;;;5028519;28;20197;-93
2022/06/25 12:34:27;;;;;;;1.87;1.47;;;28.70;53.20;;;;;;5051270;28;20219;-93
2022/06/25 12:40:53;;;;;;;2.90;1.33;;;28.70;55.70;;;;;;5038198;28;20180;-94
2022/06/25 12:43:45;;;;;;;1.60;1.40;;;28.70;56.20;;;;;;5021332;28;20184;-94
2022/06/25 12:46:32;;;;;;;3.23;1.40;;;28.80;56.40;;;;;;5024579;28;20192;-94
2022/06/25 12:49:48;;;;;;;2.87;1.30;;;28.80;56.30;;;;;;5018424;28;20185;-94
2022/06/25 12:55:38;;;;;;;3.17;1.60;;;28.80;56.20;;;;;;5035400;28;20176;-94
2022/06/25 13:01:27;;;;;;;3.27;1.40;;;28.90;56.70;;;;;;5036012;28;20244;-94
2022/06/25 13:03:53;;;;;;;3.57;1.50;;;28.90;55.20;;;;;;5019894;28;20189;-94
2022/06/25 13:06:29;;;;;;;1.47;1.30;;;28.80;54.20;;;;;;5018794;28;20176;-94
2022/06/25 13:09:25;;;;;;;2.23;1.50;;;28.70;55.40;;;;;;5016283;28;20172;-94
2022/06/25 13:11:52;;;;;;;1.73;1.50;;;28.70;56.00;;;;;;5023849;28;20208;-94
2022/06/25 13:14:18;;;;;;;6.07;1.40;;;28.70;55.50;;;;;;5023055;28;20169;-94
2022/06/25 13:16:44;;;;;;;1.83;1.30;;;28.80;56.00;;;;;;5021266;28;20203;-94
2022/06/25 13:23:24;;;;;;;2.40;1.33;;;28.80;55.70;;;;;;5042982;28;20179;-94
2022/06/25 13:26:00;;;;;;;3.83;1.40;;;28.80;56.10;;;;;;5023765;28;20199;-94
2022/06/25 13:28:57;;;;;;;2.43;1.60;;;28.80;56.00;;;;;;5023288;28;20169;-93
2022/06/25 13:31:35;;;;;;;3.90;1.70;;;28.80;56.00;;;;;;5023507;28;20526;-94
2022/06/25 13:34:35;;;;;;;3.30;1.47;;;28.90;56.40;;;;;;5023622;28;20172;-94
2022/06/25 13:37:01;;;;;;;1.50;1.30;;;28.90;56.20;;;;;;5020489;28;20200;-95
2022/06/25 13:39:27;;;;;;;2.33;1.40;;;28.90;56.50;;;;;;5021984;28;20172;-94
2022/06/25 13:45:51;;;;;;;3.80;1.50;;;29.00;55.40;;;;;;5041760;28;20176;-94
2022/06/25 13:55:04;;;;;;;4.53;1.40;;;28.90;55.80;;;;;;5040721;28;20172;-94
2022/06/25 13:57:33;;;;;;;2.70;1.40;;;28.90;53.90;;;;;;5027714;28;20210;-95
2022/06/25 13:59:58;;;;;;;2.40;1.70;;;28.90;55.20;;;;;;5024461;28;20176;-94
2022/06/25 14:05:48;;;;;;;1.53;1.30;;;28.90;54.90;;;;;;5046518;28;20191;-94
2022/06/25 14:08:13;;;;;;;3.40;1.40;;;28.90;55.70;;;;;;5028035;28;20193;-94
2022/06/25 14:10:39;;;;;;;1.50;1.30;;;28.90;54.80;;;;;;5025883;28;20176;-95
2022/06/25 14:13:51;;;;;;;5.40;1.43;;;28.90;53.70;;;;;;5024360;28;20248;-94
2022/06/25 14:16:43;;;;;;;3.20;1.37;;;28.80;53.80;;;;;;5026231;28;20181;-94
2022/06/25 14:22:30;;;;;;;2.17;1.20;;;28.70;54.80;;;;;;5040124;28;20175;-94
2022/06/25 14:28:23;;;;;;;2.37;1.50;;;28.80;54.60;;;;;;4970223;28;20288;-94
2022/06/25 14:34:11;;;;;;;2.37;1.40;;;28.80;54.20;;;;;;5043467;28;20176;-94
2022/06/25 14:42:20;;;;;;;3.27;1.27;;;28.80;55.00;;;;;;5046096;28;20248;-94
2022/06/25 14:50:10;;;;;;;2.13;1.50;;;28.80;55.40;;;;;;5048482;28;20183;-92
2022/06/25 14:56:06;;;;;;;2.57;1.43;;;28.70;55.00;;;;;;5054008;28;20184;-95
2022/06/25 14:58:32;;;;;;;2.47;1.20;;;28.70;55.40;;;;;;5028950;28;20245;-95
2022/06/25 15:00:59;;;;;;;2.37;1.43;;;28.70;54.80;;;;;;5031659;28;20201;-96
2022/06/25 15:13:31;;;;;;;2.47;1.33;;;28.70;53.90;;;;;;5047545;28;20207;-94
2022/06/25 15:15:57;;;;;;;2.43;1.17;;;28.60;52.50;;;;;;5033885;28;20256;-94
2022/06/25 15:18:23;;;;;;;1.90;1.20;;;28.60;53.60;;;;;;5025655;28;20181;-94
2022/06/25 15:21:04;;;;;;;1.80;1.10;;;28.60;53.20;;;;;;5028488;28;20200;-95
2022/06/25 15:23:38;;;;;;;2.13;1.27;;;28.60;54.40;;;;;;5028101;28;20181;-94
2022/06/25 15:26:03;;;;;;;1.20;1.10;;;28.70;54.60;;;;;;5029193;28;20203;-94
2022/06/25 15:28:29;;;;;;;1.97;1.20;;;28.60;52.70;;;;;;5031643;28;20177;-94
2022/06/25 15:30:55;;;;;;;1.90;1.20;;;28.70;55.00;;;;;;5035635;28;20192;-93
2022/06/25 15:37:02;;;;;;;2.23;1.20;;;28.70;54.30;;;;;;5058966;28;20165;-93
2022/06/25 15:39:27;;;;;;;3.33;1.30;;;28.70;53.20;;;;;;5041852;28;20218;-94
2022/06/25 15:41:53;;;;;;;1.80;1.20;;;28.70;53.40;;;;;;5041756;28;20157;-94
2022/06/25 15:44:19;;;;;;;1.83;1.30;;;28.70;54.10;;;;;;5048249;28;20160;-93
2022/06/25 15:46:45;;;;;;;2.40;1.60;;;28.70;54.60;;;;;;5061652;28;20160;-94
2022/06/25 15:49:11;;;;;;;2.87;1.43;;;28.70;54.20;;;;;;5061327;28;20179;-94
2022/06/25 15:51:37;;;;;;;4.17;1.30;;;28.70;54.10;;;;;;5060463;28;20192;-93
2022/06/25 15:54:03;;;;;;;2.80;1.20;;;28.60;52.10;;;;;;5061250;28;20156;-94
2022/06/25 15:59:52;;;;;;;1.80;1.10;;;28.50;52.40;;;;;;5078761;28;20220;-94
2022/06/25 16:02:17;;;;;;;1.47;1.10;;;28.50;53.00;;;;;;5064776;28;20164;-94
2022/06/25 16:04:44;;;;;;;4.20;1.40;;;28.40;53.70;;;;;;5065283;28;20183;-93
2022/06/25 16:07:13;;;;;;;4.30;1.17;;;28.40;53.90;;;;;;5065372;28;20164;-93
2022/06/25 16:10:05;;;;;;;4.40;1.70;;;28.40;54.70;;;;;;5058237;28;20198;-93
2022/06/25 16:12:32;;;;;;;4.47;1.37;;;28.40;54.20;;;;;;5055020;28;20207;-94
2022/06/25 16:14:58;;;;;;;2.27;1.30;;;28.40;53.70;;;;;;5050766;28;20191;-94
2022/06/25 16:24:13;;;;;;;1.87;1.37;;;28.30;53.80;;;;;;5070618;28;20176;-94
2022/06/25 16:26:41;;;;;;;1.53;1.30;;;28.30;55.10;;;;;;5055286;28;20182;-94
2022/06/25 16:33:16;;;;;;;1.53;1.30;;;28.20;54.00;;;;;;5073758;28;20213;-94
2022/06/25 16:35:42;;;;;;;4.83;1.73;;;28.20;54.00;;;;;;5059787;28;20271;-94
2022/06/25 16:41:35;;;;;;;1.90;1.47;;;28.10;54.60;;;;;;5073249;28;20207;-95
2022/06/25 16:50:53;;;;;;;2.13;1.40;;;28.00;57.00;;;;;;5076071;28;20229;-94
2022/06/25 16:56:41;;;;;;;2.47;1.43;;;28.00;55.20;;;;;;5076456;28;20191;-95
2022/06/25 16:59:27;;;;;;;3.37;1.50;;;28.00;55.20;;;;;;5058581;28;20175;-94
2022/06/25 17:05:33;;;;;;;2.40;1.60;;;27.90;56.30;;;;;;5033075;28;20182;-94
2022/06/25 17:11:24;;;;;;;3.23;1.70;;;27.90;56.10;;;;;;5076155;28;20160;-94
2022/06/25 17:13:51;;;;;;;3.00;1.53;;;27.90;56.20;;;;;;5057344;28;20179;-94
2022/06/25 17:19:39;;;;;;;2.30;1.57;;;27.80;56.50;;;;;;5077769;28;20171;-95
2022/06/25 17:26:18;;;;;;;2.33;1.40;;;27.80;57.20;;;;;;4976179;29;20230;-94
2022/06/25 17:45:34;;;;;;;4.37;1.60;;;27.70;57.60;;;;;;4994313;28;20199;-94
2022/06/25 17:54:44;;;;;;;2.53;1.60;;;27.60;58.40;;;;;;5078455;28;20207;-94
2022/06/25 18:07:18;;;;;;;1.93;1.73;;;27.60;57.80;;;;;;5079902;28;20151;-95
2022/06/25 18:09:43;;;;;;;2.33;1.63;;;27.50;58.70;;;;;;5062562;28;20180;-95
2022/06/25 18:12:09;;;;;;;2.20;1.60;;;27.50;58.50;;;;;;5061155;28;20200;-94
2022/06/25 18:43:14;;;;;;;5.20;1.80;;;26.70;71.60;;;;;;5079855;28;20155;-95
2022/06/25 18:45:39;;;;;;;3.83;2.20;;;26.60;78.60;;;;;;5062452;28;20191;-92
2022/06/25 18:48:06;;;;;;;1.83;1.70;;;26.50;72.80;;;;;;5062570;28;20188;-93
2022/06/25 18:51:16;;;;;;;1.87;1.60;;;26.50;75.10;;;;;;5062547;28;20164;-94
2022/06/25 18:53:46;;;;;;;3.53;1.70;;;26.40;73.20;;;;;;5062121;28;20172;-96
2022/06/25 18:56:13;;;;;;;3.70;1.77;;;26.50;72.30;;;;;;5062172;28;20161;-94
2022/06/25 18:58:39;;;;;;;3.63;1.80;;;26.60;71.70;;;;;;5060996;28;20176;-94
2022/06/25 19:01:21;;;;;;;3.57;1.77;;;26.70;72.20;;;;;;5060684;28;20161;-94
2022/06/25 19:03:48;;;;;;;2.90;1.90;;;26.70;72.00;;;;;;5061065;28;20168;-94
2022/06/25 19:09:36;;;;;;;4.60;1.70;;;26.70;72.70;;;;;;5076780;28;20195;-94
2022/06/25 19:12:53;;;;;;;5.03;1.60;;;26.70;72.40;;;;;;5061042;28;20195;-94
2022/06/25 19:15:18;;;;;;;3.00;1.57;;;26.60;72.10;;;;;;5060116;28;20180;-94
2022/06/25 19:21:07;;;;;;;1.97;1.20;;;26.50;72.60;;;;;;5077294;28;20216;-93
2022/06/25 19:37:24;;;;;;;3.10;1.47;;;26.20;77.10;;;;;;5076912;28;20183;-94
2022/06/25 19:43:15;;;;;;;2.03;1.83;;;26.00;78.40;;;;;;5076291;28;20191;-94
2022/06/25 19:45:53;;;;;;;2.67;1.60;;;25.90;78.20;;;;;;5058455;28;20239;-94
2022/06/25 19:48:20;;;;;;;1.60;1.50;;;25.80;78.70;;;;;;5060136;28;20239;-95
2022/06/25 19:50:46;;;;;;;3.70;1.70;;;25.90;78.60;;;;;;5061019;28;20172;-94
2022/06/25 19:53:12;;;;;;;3.03;1.77;;;25.90;78.60;;;;;;5060804;28;20204;-94
2022/06/25 19:59:09;;;;;;;2.77;1.97;;;26.00;77.30;;;;;;5077254;28;20166;-94
2022/06/25 20:01:35;;;;;;;2.30;1.70;;;26.10;76.80;;;;;;5058406;28;20195;-94
2022/06/25 20:04:09;;;;;;;3.93;1.90;;;26.10;76.50;;;;;;5051667;28;20170;-94
2022/06/25 20:06:35;;;;;;;4.00;1.90;;;26.10;76.30;;;;;;5051553;28;20196;-95
2022/06/25 20:11:53;;;;;;;2.93;1.90;;;26.10;75.80;;;;;;5071380;28;20214;-95
2022/06/25 20:14:19;;;;;;;2.60;1.90;;;26.10;75.70;;;;;;5051395;28;20188;-94
2022/06/25 20:17:05;;;;;;;4.67;1.83;;;26.10;75.70;;;;;;5055239;28;20155;-94
2022/06/25 20:22:53;;;;;;;3.80;1.70;;;26.10;75.70;;;;;;5068731;28;20183;-94
2022/06/25 20:25:19;;;;;;;4.83;2.20;;;26.10;75.80;;;;;;5051758;28;20180;-95
2022/06/25 20:31:10;;;;;;;3.73;1.63;;;26.00;75.60;;;;;;5070510;28;20179;-94
2022/06/25 20:33:57;;;;;;;1.80;1.60;;;26.00;75.50;;;;;;5047122;28;20201;-93
2022/06/25 20:46:06;;;;;;;2.83;1.83;;;26.00;75.30;;;;;;5013569;28;20208;-95
2022/06/25 20:48:32;;;;;;;2.03;1.70;;;26.00;75.40;;;;;;4995706;28;20208;-93
2022/06/25 20:57:20;;;;;;;4.37;2.03;;;26.00;76.20;;;;;;5050439;28;20499;-95
2022/06/25 21:00:05;;;;;;;2.60;1.90;;;26.00;76.30;;;;;;5056571;28;20183;-94
2022/06/25 21:09:16;;;;;;;3.80;1.90;;;25.90;76.50;;;;;;5073851;28;20194;-94
2022/06/25 21:11:42;;;;;;;4.17;2.53;;;25.90;76.40;;;;;;5050748;28;20234;-93
2022/06/25 21:14:07;;;;;;;4.73;3.57;;;25.90;76.50;;;;;;5051642;28;20252;-95
2022/06/25 21:16:33;;;;;;;5.10;2.43;;;25.90;76.70;;;;;;5054628;28;20190;-94
2022/06/25 21:19:40;;;;;;;5.43;4.87;;;25.90;77.00;;;;;;5050694;28;20525;-94
2022/06/25 21:22:18;;;;;;;5.00;4.50;;;25.90;77.00;;;;;;5051732;28;20179;-95
2022/06/25 21:25:21;;;;;;;7.57;4.93;;;25.90;76.90;;;;;;5051818;28;20173;-94
2022/06/25 21:27:54;;;;;;;5.33;4.83;;;25.90;77.50;;;;;;5048819;28;20174;-95
2022/06/25 21:30:20;;;;;;;4.83;4.43;;;25.90;77.70;;;;;;5052718;28;20190;-94
2022/06/25 21:32:45;;;;;;;5.03;4.23;;;25.90;78.10;;;;;;5055696;28;20199;-94
2022/06/25 21:36:01;;;;;;;5.73;4.60;;;25.80;78.30;;;;;;5054302;28;20191;-94
2022/06/25 21:39:10;;;;;;;6.10;4.73;;;25.80;79.00;;;;;;5053944;28;20173;-94
2022/06/25 21:41:36;;;;;;;7.17;4.40;;;25.80;79.20;;;;;;5056404;28;20172;-94
2022/06/25 21:44:02;;;;;;;6.63;5.90;;;25.80;79.20;;;;;;5048971;28;20190;-94
2022/06/25 21:46:29;;;;;;;7.63;5.33;;;25.70;79.50;;;;;;5043960;28;20199;-94
2022/06/25 21:49:01;;;;;;;8.97;5.10;;;25.70;80.00;;;;;;5051091;28;20195;-94
2022/06/25 21:51:27;;;;;;;7.20;5.70;;;25.70;80.20;;;;;;5047976;28;20210;-94
2022/06/25 21:53:52;;;;;;;6.43;5.33;;;25.70;80.40;;;;;;5049633;28;20168;-94
2022/06/25 21:56:24;;;;;;;7.37;5.63;;;25.70;80.80;;;;;;5048171;28;20182;-94
2022/06/25 21:58:52;;;;;;;7.07;5.93;;;25.60;80.60;;;;;;5043370;28;20207;-94
2022/06/25 22:01:18;;;;;;;6.27;5.23;;;25.60;80.90;;;;;;5040208;28;20198;-94
2022/06/25 22:03:44;;;;;;;8.13;5.73;;;25.60;81.30;;;;;;5045131;28;20178;-94
2022/06/25 22:06:10;;;;;;;7.73;6.47;;;25.60;81.70;;;;;;5045823;28;20183;-93
2022/06/25 22:08:36;;;;;;;7.63;5.50;;;25.60;82.30;;;;;;5042041;28;20179;-94
2022/06/25 22:11:02;;;;;;;6.47;5.03;;;25.50;82.70;;;;;;5044346;28;20170;-94
2022/06/25 22:17:33;;;;;;;6.90;5.43;;;25.50;83.20;;;;;;5071564;28;20179;-94
2022/06/25 22:20:00;;;;;;;5.57;4.70;;;25.50;83.50;;;;;;5056886;28;20501;-94
2022/06/25 22:22:31;;;;;;;6.73;4.77;;;25.50;83.20;;;;;;5054185;28;20252;-94
2022/06/25 22:25:15;;;;;;;4.60;4.20;;;25.50;83.50;;;;;;5055433;28;20187;-94
2022/06/25 22:27:40;;;;;;;5.93;4.30;;;25.50;84.20;;;;;;5049406;28;20249;-94
2022/06/25 22:30:07;;;;;;;6.33;4.20;;;25.50;83.70;;;;;;5052501;28;20191;-94
2022/06/25 22:32:32;;;;;;;7.03;4.70;;;25.50;84.00;;;;;;5051865;28;20349;-94
2022/06/25 22:35:07;;;;;;;6.17;4.00;;;25.50;83.60;;;;;;5048425;28;20187;-94
2022/06/25 22:37:33;;;;;;;9.87;4.17;;;25.50;84.60;;;;;;5052751;28;20177;-94
2022/06/25 22:39:59;;;;;;;4.53;3.67;;;25.50;84.20;;;;;;5052843;28;20477;-94
2022/06/25 22:42:26;;;;;;;4.57;3.43;;;25.50;84.50;;;;;;5054259;28;20238;-94
2022/06/25 22:45:19;;;;;;;4.30;3.90;;;25.50;84.70;;;;;;5056739;28;20189;-94
2022/06/25 22:47:45;;;;;;;4.20;3.20;;;25.50;85.10;;;;;;5054085;28;20191;-95
2022/06/25 22:50:12;;;;;;;4.10;3.33;;;25.50;85.00;;;;;;5054197;28;20183;-94